sensor_id;sensor_type;location;lat;lon;timestamp;temperature;humidity
21037;DHT22;10677;50.942;4.028;2023-04-01T00:00:31;10.50;99.90
21037;DHT22;10677;50.942;4.028;2023-04-01T00:02:57;10.50;99.90
21037;DHT22;10677;50.942;4.028;2023-04-01T00:05:22;10.50;99.90
21037;DHT22;10677;50.942;4.028;2023-04-01T00:07:50;10.50;99.90
21037;DHT22;10677;50.942;4.028;2023-04-01T00:10:16;10.50;99.90
21037;DHT22;10677;50.942;4.028;2023-04-01T00:12:42;10.50;99.90
21037;DHT22;10677;50.942;4.028;2023-04-01T00:15:10;10.50;99.90
21037;DHT22;10677;50.942;4.028;2023-04-01T00:17:37;10.50;99.90
21037;DHT22;10677;50.942;4.028;2023-04-01T00:20:03;10.50;99.90
21037;DHT22;10677;50.942;4.028;2023-04-01T00:22:29;10.50;99.90
21037;DHT22;10677;50.942;4.028;2023-04-01T00:24:55;10.50;99.90
21037;DHT22;10677;50.942;4.028;2023-04-01T00:27:20;10.50;99.90
21037;DHT22;10677;50.942;4.028;2023-04-01T00:29:46;10.40;99.90
21037;DHT22;10677;50.942;4.028;2023-04-01T00:32:13;10.40;99.90
21037;DHT22;10677;50.942;4.028;2023-04-01T00:34:39;10.40;99.90
21037;DHT22;10677;50.942;4.028;2023-04-01T00:37:05;10.50;99.90
21037;DHT22;10677;50.942;4.028;2023-04-01T00:39:32;10.50;99.90
21037;DHT22;10677;50.942;4.028;2023-04-01T00:41:59;10.60;99.90
21037;DHT22;10677;50.942;4.028;2023-04-01T00:44:31;10.50;99.90
21037;DHT22;10677;50.942;4.028;2023-04-01T00:46:59;10.60;99.90
21037;DHT22;10677;50.942;4.028;2023-04-01T00:49:32;10.60;99.90
21037;DHT22;10677;50.942;4.028;2023-04-01T00:52:00;10.60;99.90
21037;DHT22;10677;50.942;4.028;2023-04-01T00:54:28;10.60;99.90
21037;DHT22;10677;50.942;4.028;2023-04-01T00:57:24;10.50;99.90
21037;DHT22;10677;50.942;4.028;2023-04-01T00:59:54;10.50;99.90
21037;DHT22;10677;50.942;4.028;2023-04-01T01:02:20;10.50;99.90
21037;DHT22;10677;50.942;4.028;2023-04-01T01:04:46;10.40;99.90
21037;DHT22;10677;50.942;4.028;2023-04-01T01:10:29;10.50;99.90
21037;DHT22;10677;50.942;4.028;2023-04-01T01:16:03;10.40;99.90
21037;DHT22;10677;50.942;4.028;2023-04-01T01:18:50;10.30;99.90
21037;DHT22;10677;50.942;4.028;2023-04-01T01:27:22;10.10;99.90
21037;DHT22;10677;50.942;4.028;2023-04-01T01:30:30;10.00;99.90
21037;DHT22;10677;50.942;4.028;2023-04-01T01:35:56;9.90;99.90
21037;DHT22;10677;50.942;4.028;2023-04-01T01:38:27;9.80;99.90
21037;DHT22;10677;50.942;4.028;2023-04-01T01:40:56;9.80;99.90
21037;DHT22;10677;50.942;4.028;2023-04-01T01:43:25;9.80;99.90
21037;DHT22;10677;50.942;4.028;2023-04-01T01:45:54;9.80;99.90
21037;DHT22;10677;50.942;4.028;2023-04-01T01:48:22;9.70;99.90
21037;DHT22;10677;50.942;4.028;2023-04-01T01:50:49;9.60;99.90
21037;DHT22;10677;50.942;4.028;2023-04-01T01:53:15;9.60;99.90
21037;DHT22;10677;50.942;4.028;2023-04-01T01:55:44;9.60;99.90
21037;DHT22;10677;50.942;4.028;2023-04-01T01:58:14;9.60;99.90
21037;DHT22;10677;50.942;4.028;2023-04-01T02:00:44;9.60;99.90
21037;DHT22;10677;50.942;4.028;2023-04-01T02:03:13;9.80;99.90
21037;DHT22;10677;50.942;4.028;2023-04-01T02:05:40;9.70;99.90
21037;DHT22;10677;50.942;4.028;2023-04-01T02:08:20;9.70;99.90
21037;DHT22;10677;50.942;4.028;2023-04-01T02:10:55;9.80;99.90
21037;DHT22;10677;50.942;4.028;2023-04-01T02:13:45;9.80;99.90
21037;DHT22;10677;50.942;4.028;2023-04-01T02:16:34;9.70;99.90
21037;DHT22;10677;50.942;4.028;2023-04-01T02:19:03;9.80;99.90
21037;DHT22;10677;50.942;4.028;2023-04-01T02:21:33;9.80;99.90
21037;DHT22;10677;50.942;4.028;2023-04-01T02:24:01;9.70;99.90
21037;DHT22;10677;50.942;4.028;2023-04-01T02:26:28;9.80;99.90
21037;DHT22;10677;50.942;4.028;2023-04-01T02:28:55;9.80;99.90
21037;DHT22;10677;50.942;4.028;2023-04-01T02:31:22;9.70;99.90
21037;DHT22;10677;50.942;4.028;2023-04-01T02:33:49;9.70;99.90
21037;DHT22;10677;50.942;4.028;2023-04-01T02:36:16;9.70;99.90
21037;DHT22;10677;50.942;4.028;2023-04-01T02:38:44;9.70;99.90
21037;DHT22;10677;50.942;4.028;2023-04-01T02:41:11;9.70;99.90
21037;DHT22;10677;50.942;4.028;2023-04-01T02:43:37;9.80;99.90
21037;DHT22;10677;50.942;4.028;2023-04-01T02:46:03;9.80;99.90
21037;DHT22;10677;50.942;4.028;2023-04-01T02:48:29;9.90;99.90
21037;DHT22;10677;50.942;4.028;2023-04-01T02:50:55;9.90;99.90
21037;DHT22;10677;50.942;4.028;2023-04-01T02:53:21;9.90;99.90
21037;DHT22;10677;50.942;4.028;2023-04-01T02:55:47;9.80;99.90
21037;DHT22;10677;50.942;4.028;2023-04-01T02:58:16;9.80;99.90
21037;DHT22;10677;50.942;4.028;2023-04-01T03:00:41;9.80;99.90
21037;DHT22;10677;50.942;4.028;2023-04-01T03:03:08;9.80;99.90
21037;DHT22;10677;50.942;4.028;2023-04-01T03:05:33;9.90;99.90
21037;DHT22;10677;50.942;4.028;2023-04-01T03:08:00;9.80;99.90
21037;DHT22;10677;50.942;4.028;2023-04-01T03:10:25;9.80;99.90
21037;DHT22;10677;50.942;4.028;2023-04-01T03:12:51;9.90;99.90
21037;DHT22;10677;50.942;4.028;2023-04-01T03:15:16;9.80;99.90
21037;DHT22;10677;50.942;4.028;2023-04-01T03:17:43;9.80;99.90
21037;DHT22;10677;50.942;4.028;2023-04-01T03:20:10;9.90;99.90
21037;DHT22;10677;50.942;4.028;2023-04-01T03:22:36;9.80;99.90
21037;DHT22;10677;50.942;4.028;2023-04-01T03:25:03;9.90;99.90
21037;DHT22;10677;50.942;4.028;2023-04-01T03:27:29;9.80;99.90
21037;DHT22;10677;50.942;4.028;2023-04-01T03:29:55;9.80;99.90
21037;DHT22;10677;50.942;4.028;2023-04-01T03:32:21;9.90;99.90
21037;DHT22;10677;50.942;4.028;2023-04-01T03:34:46;9.90;99.90
21037;DHT22;10677;50.942;4.028;2023-04-01T03:37:12;10.00;99.90
21037;DHT22;10677;50.942;4.028;2023-04-01T03:39:38;10.10;99.90
21037;DHT22;10677;50.942;4.028;2023-04-01T03:42:04;9.90;99.90
21037;DHT22;10677;50.942;4.028;2023-04-01T03:44:33;9.90;99.90
21037;DHT22;10677;50.942;4.028;2023-04-01T03:46:59;9.90;99.90
21037;DHT22;10677;50.942;4.028;2023-04-01T03:49:26;9.90;99.90
21037;DHT22;10677;50.942;4.028;2023-04-01T03:51:52;9.80;99.90
21037;DHT22;10677;50.942;4.028;2023-04-01T03:54:18;9.80;99.90
21037;DHT22;10677;50.942;4.028;2023-04-01T03:56:45;9.70;99.90
21037;DHT22;10677;50.942;4.028;2023-04-01T03:59:11;9.70;99.90
21037;DHT22;10677;50.942;4.028;2023-04-01T04:01:37;9.80;99.90
21037;DHT22;10677;50.942;4.028;2023-04-01T04:04:03;9.80;99.90
21037;DHT22;10677;50.942;4.028;2023-04-01T04:06:28;9.70;99.90
21037;DHT22;10677;50.942;4.028;2023-04-01T04:08:54;9.70;99.90
21037;DHT22;10677;50.942;4.028;2023-04-01T04:11:21;9.60;99.90
21037;DHT22;10677;50.942;4.028;2023-04-01T04:13:47;9.70;99.90
21037;DHT22;10677;50.942;4.028;2023-04-01T04:16:14;9.50;99.90
21037;DHT22;10677;50.942;4.028;2023-04-01T04:18:40;9.50;99.90
21037;DHT22;10677;50.942;4.028;2023-04-01T04:21:06;9.50;99.90
21037;DHT22;10677;50.942;4.028;2023-04-01T04:23:32;9.50;99.90
21037;DHT22;10677;50.942;4.028;2023-04-01T04:26:17;9.50;99.90
21037;DHT22;10677;50.942;4.028;2023-04-01T04:28:42;9.60;99.90
21037;DHT22;10677;50.942;4.028;2023-04-01T04:31:08;9.60;99.90
21037;DHT22;10677;50.942;4.028;2023-04-01T04:33:35;9.60;99.90
21037;DHT22;10677;50.942;4.028;2023-04-01T04:36:01;9.50;99.90
21037;DHT22;10677;50.942;4.028;2023-04-01T04:38:27;9.50;99.90
21037;DHT22;10677;50.942;4.028;2023-04-01T04:40:53;9.50;99.90
21037;DHT22;10677;50.942;4.028;2023-04-01T04:43:19;9.40;99.90
21037;DHT22;10677;50.942;4.028;2023-04-01T04:45:46;9.40;99.90
21037;DHT22;10677;50.942;4.028;2023-04-01T04:48:13;9.40;99.90
21037;DHT22;10677;50.942;4.028;2023-04-01T04:50:42;9.40;99.90
21037;DHT22;10677;50.942;4.028;2023-04-01T04:53:15;9.50;99.90
21037;DHT22;10677;50.942;4.028;2023-04-01T04:55:45;9.50;99.90
21037;DHT22;10677;50.942;4.028;2023-04-01T04:58:11;9.60;99.90
21037;DHT22;10677;50.942;4.028;2023-04-01T05:00:36;9.60;99.90
21037;DHT22;10677;50.942;4.028;2023-04-01T05:03:02;9.60;99.90
21037;DHT22;10677;50.942;4.028;2023-04-01T05:05:28;9.60;99.90
21037;DHT22;10677;50.942;4.028;2023-04-01T05:07:53;9.40;99.90
21037;DHT22;10677;50.942;4.028;2023-04-01T05:10:19;9.40;99.90
21037;DHT22;10677;50.942;4.028;2023-04-01T05:12:46;9.40;99.90
21037;DHT22;10677;50.942;4.028;2023-04-01T05:15:12;9.40;99.90
21037;DHT22;10677;50.942;4.028;2023-04-01T05:17:37;9.40;99.90
21037;DHT22;10677;50.942;4.028;2023-04-01T05:20:03;9.40;99.90
21037;DHT22;10677;50.942;4.028;2023-04-01T05:22:29;9.40;99.90
21037;DHT22;10677;50.942;4.028;2023-04-01T05:24:55;9.40;99.90
21037;DHT22;10677;50.942;4.028;2023-04-01T05:27:21;9.40;99.90
21037;DHT22;10677;50.942;4.028;2023-04-01T05:29:47;9.30;99.90
21037;DHT22;10677;50.942;4.028;2023-04-01T05:32:12;9.40;99.90
21037;DHT22;10677;50.942;4.028;2023-04-01T05:34:38;9.40;99.90
21037;DHT22;10677;50.942;4.028;2023-04-01T05:37:04;9.40;99.90
21037;DHT22;10677;50.942;4.028;2023-04-01T05:39:29;9.40;99.90
21037;DHT22;10677;50.942;4.028;2023-04-01T05:41:55;9.40;99.90
21037;DHT22;10677;50.942;4.028;2023-04-01T05:44:21;9.40;99.90
21037;DHT22;10677;50.942;4.028;2023-04-01T05:46:46;9.40;99.90
21037;DHT22;10677;50.942;4.028;2023-04-01T05:49:12;9.40;99.90
21037;DHT22;10677;50.942;4.028;2023-04-01T05:51:37;9.40;99.90
21037;DHT22;10677;50.942;4.028;2023-04-01T05:54:06;9.30;99.90
21037;DHT22;10677;50.942;4.028;2023-04-01T05:56:31;9.40;99.90
21037;DHT22;10677;50.942;4.028;2023-04-01T05:58:57;9.40;99.90
21037;DHT22;10677;50.942;4.028;2023-04-01T06:01:22;9.40;99.90
21037;DHT22;10677;50.942;4.028;2023-04-01T06:03:48;9.50;99.90
21037;DHT22;10677;50.942;4.028;2023-04-01T06:06:26;9.60;99.90
21037;DHT22;10677;50.942;4.028;2023-04-01T06:08:53;9.60;99.90
21037;DHT22;10677;50.942;4.028;2023-04-01T06:11:22;9.50;99.90
21037;DHT22;10677;50.942;4.028;2023-04-01T06:13:57;9.50;99.90
21037;DHT22;10677;50.942;4.028;2023-04-01T06:30:07;9.50;99.90
21037;DHT22;10677;50.942;4.028;2023-04-01T06:32:57;9.50;99.90
21037;DHT22;10677;50.942;4.028;2023-04-01T06:44:13;9.30;99.90
21037;DHT22;10677;50.942;4.028;2023-04-01T06:46:58;9.30;99.90
21037;DHT22;10677;50.942;4.028;2023-04-01T06:52:02;9.40;99.90
21037;DHT22;10677;50.942;4.028;2023-04-01T06:54:35;9.30;99.90
21037;DHT22;10677;50.942;4.028;2023-04-01T06:57:42;9.30;99.90
21037;DHT22;10677;50.942;4.028;2023-04-01T07:00:26;9.20;99.90
21037;DHT22;10677;50.942;4.028;2023-04-01T07:03:26;9.30;99.90
21037;DHT22;10677;50.942;4.028;2023-04-01T07:05:48;9.30;99.90
21037;DHT22;10677;50.942;4.028;2023-04-01T07:08:26;9.30;99.90
21037;DHT22;10677;50.942;4.028;2023-04-01T07:10:58;9.30;99.90
21037;DHT22;10677;50.942;4.028;2023-04-01T07:13:48;9.30;99.90
21037;DHT22;10677;50.942;4.028;2023-04-01T07:16:17;9.30;99.90
21037;DHT22;10677;50.942;4.028;2023-04-01T07:18:57;9.30;99.90
21037;DHT22;10677;50.942;4.028;2023-04-01T07:24:00;9.30;99.90
21037;DHT22;10677;50.942;4.028;2023-04-01T07:26:26;9.30;99.90
21037;DHT22;10677;50.942;4.028;2023-04-01T07:28:53;9.40;99.90
21037;DHT22;10677;50.942;4.028;2023-04-01T07:34:19;9.40;99.90
21037;DHT22;10677;50.942;4.028;2023-04-01T07:37:07;9.30;99.90
21037;DHT22;10677;50.942;4.028;2023-04-01T07:45:08;9.40;99.90
21037;DHT22;10677;50.942;4.028;2023-04-01T07:50:30;9.50;99.90
21037;DHT22;10677;50.942;4.028;2023-04-01T07:53:24;9.50;99.90
21037;DHT22;10677;50.942;4.028;2023-04-01T07:59:09;9.60;99.90
21037;DHT22;10677;50.942;4.028;2023-04-01T08:04:53;9.60;99.90
21037;DHT22;10677;50.942;4.028;2023-04-01T08:07:51;9.70;99.90
21037;DHT22;10677;50.942;4.028;2023-04-01T08:10:23;9.70;99.90
21037;DHT22;10677;50.942;4.028;2023-04-01T08:15:32;9.70;99.90
21037;DHT22;10677;50.942;4.028;2023-04-01T08:20:47;9.70;99.90
21037;DHT22;10677;50.942;4.028;2023-04-01T08:23:21;9.60;99.90
21037;DHT22;10677;50.942;4.028;2023-04-01T08:26:10;9.60;99.90
21037;DHT22;10677;50.942;4.028;2023-04-01T08:28:45;9.60;99.90
21037;DHT22;10677;50.942;4.028;2023-04-01T08:31:21;9.60;99.90
21037;DHT22;10677;50.942;4.028;2023-04-01T08:33:49;9.60;99.90
21037;DHT22;10677;50.942;4.028;2023-04-01T08:39:30;9.60;99.90
21037;DHT22;10677;50.942;4.028;2023-04-01T08:56:26;9.70;99.90
21037;DHT22;10677;50.942;4.028;2023-04-01T09:01:51;9.70;99.90
21037;DHT22;10677;50.942;4.028;2023-04-01T09:04:51;9.80;99.90
21037;DHT22;10677;50.942;4.028;2023-04-01T09:18:42;9.70;99.90
21037;DHT22;10677;50.942;4.028;2023-04-01T09:21:28;9.70;99.90
21037;DHT22;10677;50.942;4.028;2023-04-01T09:24:26;9.60;99.90
21037;DHT22;10677;50.942;4.028;2023-04-01T09:41:29;9.90;99.90
21037;DHT22;10677;50.942;4.028;2023-04-01T09:44:04;9.80;99.90
21037;DHT22;10677;50.942;4.028;2023-04-01T09:52:31;10.10;99.90
21037;DHT22;10677;50.942;4.028;2023-04-01T10:00:55;10.20;99.90
21037;DHT22;10677;50.942;4.028;2023-04-01T10:23:10;10.00;99.90
21037;DHT22;10677;50.942;4.028;2023-04-01T10:34:19;10.00;99.90
21037;DHT22;10677;50.942;4.028;2023-04-01T11:05:39;10.40;99.90
21037;DHT22;10677;50.942;4.028;2023-04-01T11:14:12;10.30;99.90
21037;DHT22;10677;50.942;4.028;2023-04-01T11:25:21;10.40;99.90
21037;DHT22;10677;50.942;4.028;2023-04-01T11:42:29;10.40;99.90
21037;DHT22;10677;50.942;4.028;2023-04-01T11:50:35;10.30;99.90
21037;DHT22;10677;50.942;4.028;2023-04-01T11:53:13;10.30;99.90
21037;DHT22;10677;50.942;4.028;2023-04-01T12:01:20;10.60;99.90
21037;DHT22;10677;50.942;4.028;2023-04-01T12:15:20;10.40;99.90
21037;DHT22;10677;50.942;4.028;2023-04-01T12:26:52;10.10;99.90
21037;DHT22;10677;50.942;4.028;2023-04-01T12:32:21;10.00;99.90
21037;DHT22;10677;50.942;4.028;2023-04-01T12:49:03;10.10;99.90
21037;DHT22;10677;50.942;4.028;2023-04-01T13:15:12;9.80;99.90
21037;DHT22;10677;50.942;4.028;2023-04-01T13:20:45;9.70;99.90
21037;DHT22;10677;50.942;4.028;2023-04-01T13:23:24;9.70;99.90
21037;DHT22;10677;50.942;4.028;2023-04-01T13:26:04;9.60;99.90
21037;DHT22;10677;50.942;4.028;2023-04-01T13:28:39;9.70;99.90
21037;DHT22;10677;50.942;4.028;2023-04-01T13:34:39;9.80;99.90
21037;DHT22;10677;50.942;4.028;2023-04-01T13:37:23;9.90;99.90
21037;DHT22;10677;50.942;4.028;2023-04-01T13:40:13;9.80;99.90
21037;DHT22;10677;50.942;4.028;2023-04-01T13:42:53;9.80;99.90
21037;DHT22;10677;50.942;4.028;2023-04-01T13:45:24;9.80;99.90
21037;DHT22;10677;50.942;4.028;2023-04-01T13:51:01;9.80;99.90
21037;DHT22;10677;50.942;4.028;2023-04-01T13:59:29;9.60;99.90
21037;DHT22;10677;50.942;4.028;2023-04-01T14:11:17;9.50;99.90
21037;DHT22;10677;50.942;4.028;2023-04-01T14:22:32;9.70;99.90
21037;DHT22;10677;50.942;4.028;2023-04-01T14:28:02;9.60;99.90
21037;DHT22;10677;50.942;4.028;2023-04-01T14:41:59;9.70;99.90
21037;DHT22;10677;50.942;4.028;2023-04-01T14:49:47;9.90;99.90
21037;DHT22;10677;50.942;4.028;2023-04-01T14:52:32;9.80;99.90
21037;DHT22;10677;50.942;4.028;2023-04-01T14:55:10;9.80;99.90
21037;DHT22;10677;50.942;4.028;2023-04-01T15:03:48;9.80;99.90
21037;DHT22;10677;50.942;4.028;2023-04-01T15:06:47;9.80;99.90
21037;DHT22;10677;50.942;4.028;2023-04-01T15:17:16;9.60;99.90
21037;DHT22;10677;50.942;4.028;2023-04-01T15:20:15;9.70;99.90
21037;DHT22;10677;50.942;4.028;2023-04-01T15:23:31;9.80;99.90
21037;DHT22;10677;50.942;4.028;2023-04-01T15:25:51;9.80;99.90
21037;DHT22;10677;50.942;4.028;2023-04-01T15:36:44;9.70;99.90
21037;DHT22;10677;50.942;4.028;2023-04-01T15:56:06;9.50;99.90
21037;DHT22;10677;50.942;4.028;2023-04-01T16:06:30;9.50;99.90
21037;DHT22;10677;50.942;4.028;2023-04-01T16:09:25;9.50;99.90
21037;DHT22;10677;50.942;4.028;2023-04-01T16:25:17;9.40;99.90
21037;DHT22;10677;50.942;4.028;2023-04-01T16:27:53;9.40;99.90
21037;DHT22;10677;50.942;4.028;2023-04-01T16:30:39;9.30;99.90
21037;DHT22;10677;50.942;4.028;2023-04-01T16:33:27;9.30;99.90
21037;DHT22;10677;50.942;4.028;2023-04-01T16:35:58;9.30;99.90
21037;DHT22;10677;50.942;4.028;2023-04-01T16:38:52;9.40;99.90
21037;DHT22;10677;50.942;4.028;2023-04-01T16:41:35;9.40;99.90
21037;DHT22;10677;50.942;4.028;2023-04-01T16:44:22;9.40;99.90
21037;DHT22;10677;50.942;4.028;2023-04-01T16:46:58;9.40;99.90
21037;DHT22;10677;50.942;4.028;2023-04-01T16:49:54;9.40;99.90
21037;DHT22;10677;50.942;4.028;2023-04-01T16:55:20;9.40;99.90
21037;DHT22;10677;50.942;4.028;2023-04-01T16:57:56;9.40;99.90
21037;DHT22;10677;50.942;4.028;2023-04-01T17:00:27;9.30;99.90
21037;DHT22;10677;50.942;4.028;2023-04-01T17:03:20;9.30;99.90
21037;DHT22;10677;50.942;4.028;2023-04-01T17:11:24;9.20;99.90
21037;DHT22;10677;50.942;4.028;2023-04-01T17:14:19;9.20;99.90
21037;DHT22;10677;50.942;4.028;2023-04-01T17:22:17;9.10;99.90
21037;DHT22;10677;50.942;4.028;2023-04-01T17:41:51;9.10;99.90
21037;DHT22;10677;50.942;4.028;2023-04-01T17:47:28;9.10;99.90
21037;DHT22;10677;50.942;4.028;2023-04-01T17:58:12;8.90;99.90
21037;DHT22;10677;50.942;4.028;2023-04-01T18:03:14;9.00;99.90
21037;DHT22;10677;50.942;4.028;2023-04-01T18:11:53;8.90;99.90
21037;DHT22;10677;50.942;4.028;2023-04-01T18:14:51;8.90;99.90
21037;DHT22;10677;50.942;4.028;2023-04-01T18:22:58;8.80;99.90
21037;DHT22;10677;50.942;4.028;2023-04-01T18:25:37;8.80;99.90
21037;DHT22;10677;50.942;4.028;2023-04-01T18:30:40;8.80;99.90
21037;DHT22;10677;50.942;4.028;2023-04-01T18:33:29;8.90;99.90
21037;DHT22;10677;50.942;4.028;2023-04-01T18:38:38;8.80;99.90
21037;DHT22;10677;50.942;4.028;2023-04-01T18:41:50;8.80;99.90
21037;DHT22;10677;50.942;4.028;2023-04-01T18:44:19;8.80;99.90
21037;DHT22;10677;50.942;4.028;2023-04-01T18:50:36;8.70;99.90
21037;DHT22;10677;50.942;4.028;2023-04-01T18:53:17;8.70;99.90
21037;DHT22;10677;50.942;4.028;2023-04-01T18:55:56;8.70;99.90
21037;DHT22;10677;50.942;4.028;2023-04-01T19:01:48;8.70;99.90
21037;DHT22;10677;50.942;4.028;2023-04-01T19:04:37;8.70;99.90
21037;DHT22;10677;50.942;4.028;2023-04-01T19:09:52;8.70;99.90
21037;DHT22;10677;50.942;4.028;2023-04-01T19:12:31;8.70;99.90
21037;DHT22;10677;50.942;4.028;2023-04-01T19:15:13;8.80;99.90
21037;DHT22;10677;50.942;4.028;2023-04-01T19:29:32;8.80;99.90
21037;DHT22;10677;50.942;4.028;2023-04-01T19:32:33;8.70;99.90
21037;DHT22;10677;50.942;4.028;2023-04-01T19:35:12;8.70;99.90
21037;DHT22;10677;50.942;4.028;2023-04-01T19:37:58;8.70;99.90
21037;DHT22;10677;50.942;4.028;2023-04-01T19:40:39;8.70;99.90
21037;DHT22;10677;50.942;4.028;2023-04-01T19:43:20;8.70;99.90
21037;DHT22;10677;50.942;4.028;2023-04-01T19:46:05;8.60;99.90
21037;DHT22;10677;50.942;4.028;2023-04-01T19:49:05;8.60;99.90
21037;DHT22;10677;50.942;4.028;2023-04-01T19:57:12;8.70;99.90
21037;DHT22;10677;50.942;4.028;2023-04-01T20:00:07;8.70;99.90
21037;DHT22;10677;50.942;4.028;2023-04-01T20:02:55;8.70;99.90
21037;DHT22;10677;50.942;4.028;2023-04-01T20:05:31;8.60;99.90
21037;DHT22;10677;50.942;4.028;2023-04-01T20:08:26;8.60;99.90
21037;DHT22;10677;50.942;4.028;2023-04-01T20:13:49;8.70;99.90
21037;DHT22;10677;50.942;4.028;2023-04-01T20:16:20;8.60;99.90
21037;DHT22;10677;50.942;4.028;2023-04-01T20:19:01;8.70;99.90
21037;DHT22;10677;50.942;4.028;2023-04-01T20:21:46;8.70;99.90
21037;DHT22;10677;50.942;4.028;2023-04-01T20:24:20;8.70;99.90
21037;DHT22;10677;50.942;4.028;2023-04-01T20:27:08;8.70;99.90
21037;DHT22;10677;50.942;4.028;2023-04-01T20:41:11;8.70;99.90
21037;DHT22;10677;50.942;4.028;2023-04-01T20:46:45;8.70;99.90
21037;DHT22;10677;50.942;4.028;2023-04-01T21:02:49;8.80;99.90
21037;DHT22;10677;50.942;4.028;2023-04-01T21:05:28;8.80;99.90
21037;DHT22;10677;50.942;4.028;2023-04-01T21:11:16;8.70;99.90
21037;DHT22;10677;50.942;4.028;2023-04-01T21:16:39;8.80;99.90
21037;DHT22;10677;50.942;4.028;2023-04-01T21:22:15;8.80;99.90
21037;DHT22;10677;50.942;4.028;2023-04-01T21:28:12;8.80;99.90
21037;DHT22;10677;50.942;4.028;2023-04-01T21:31:15;8.80;99.90
21037;DHT22;10677;50.942;4.028;2023-04-01T21:33:54;8.80;99.90
21037;DHT22;10677;50.942;4.028;2023-04-01T21:45:08;8.80;99.90
21037;DHT22;10677;50.942;4.028;2023-04-01T21:48:07;8.80;99.90
21037;DHT22;10677;50.942;4.028;2023-04-01T21:53:09;8.80;99.90
21037;DHT22;10677;50.942;4.028;2023-04-01T22:06:37;8.80;99.90
21037;DHT22;10677;50.942;4.028;2023-04-01T22:09:25;8.90;99.90
21037;DHT22;10677;50.942;4.028;2023-04-01T22:11:58;8.90;99.90
21037;DHT22;10677;50.942;4.028;2023-04-01T22:17:10;8.90;99.90
21037;DHT22;10677;50.942;4.028;2023-04-01T22:30:20;8.80;99.90
21037;DHT22;10677;50.942;4.028;2023-04-01T22:33:02;8.80;99.90
21037;DHT22;10677;50.942;4.028;2023-04-01T22:43:44;8.80;99.90
21037;DHT22;10677;50.942;4.028;2023-04-01T22:48:49;8.80;99.90
21037;DHT22;10677;50.942;4.028;2023-04-01T22:56:41;8.80;99.90
21037;DHT22;10677;50.942;4.028;2023-04-01T22:59:11;8.80;99.90
21037;DHT22;10677;50.942;4.028;2023-04-01T23:01:58;8.80;99.90
21037;DHT22;10677;50.942;4.028;2023-04-01T23:04:32;8.80;99.90
21037;DHT22;10677;50.942;4.028;2023-04-01T23:07:02;8.80;99.90
21037;DHT22;10677;50.942;4.028;2023-04-01T23:09:34;8.80;99.90
21037;DHT22;10677;50.942;4.028;2023-04-01T23:12:07;8.80;99.90
21037;DHT22;10677;50.942;4.028;2023-04-01T23:14:43;8.80;99.90
21037;DHT22;10677;50.942;4.028;2023-04-01T23:17:25;8.80;99.90
21037;DHT22;10677;50.942;4.028;2023-04-01T23:36:00;8.80;99.90
21037;DHT22;10677;50.942;4.028;2023-04-01T23:38:40;8.80;99.90
21037;DHT22;10677;50.942;4.028;2023-04-01T23:41:28;8.70;99.90
21037;DHT22;10677;50.942;4.028;2023-04-01T23:44:10;8.80;99.90
21037;DHT22;10677;50.942;4.028;2023-04-01T23:46:39;8.80;99.90
21037;DHT22;10677;50.942;4.028;2023-04-01T23:49:16;8.80;99.90
21037;DHT22;10677;50.942;4.028;2023-04-01T23:51:55;8.80;99.90
21037;DHT22;10677;50.942;4.028;2023-04-01T23:56:56;8.70;99.90
